Time;durP1;ratioP1;P1;durP2;ratioP2;P2;SDS_P1;SDS_P2;PMS_P1;PMS_P2;Temp;Humidity;BMP_temperature;BMP_pressure;BME280_temperature;BME280_humidity;BME280_pressure;Samples;Min_cycle;Max_cycle;Signal;HPM_P1;HPM_P2
2023/02/09 00:01:19;;;;;;;34.80;17.90;;;;;;;-7.85;91.65;98941.52;109109;1266;22594;-81
2023/02/09 00:03:51;;;;;;;33.30;18.90;;;;;;;-7.91;91.45;98936.04;109198;1272;178506;-81
2023/02/09 00:06:28;;;;;;;36.30;20.10;;;;;;;-7.92;91.30;98935.61;109198;1271;24405;-82
2023/02/09 00:09:02;;;;;;;33.50;18.50;;;;;;;-7.88;91.44;98938.60;109096;1256;23970;-81
2023/02/09 00:14:29;;;;;;;25.00;13.90;;;;;;;-7.60;92.59;98928.77;108930;1273;22610;-81
2023/02/09 00:17:04;;;;;;;25.80;13.20;;;;;;;-7.27;93.09;98918.35;109080;1273;35589;-81
2023/02/09 00:19:35;;;;;;;24.90;12.70;;;;;;;-6.98;93.16;98904.77;109059;1273;24001;-82
2023/02/09 00:22:07;;;;;;;22.80;13.40;;;;;;;-6.90;92.59;98911.11;109094;1270;22522;-82
2023/02/09 00:24:38;;;;;;;29.40;16.50;;;;;;;-6.78;92.68;98915.84;109128;1273;22629;-81
2023/02/09 00:27:09;;;;;;;31.80;14.70;;;;;;;-6.69;92.64;98912.48;109075;1266;39273;-81
2023/02/09 00:29:40;;;;;;;32.80;19.50;;;;;;;-6.61;92.47;98912.01;109083;1273;22539;-81
2023/02/09 00:32:12;;;;;;;31.30;16.90;;;;;;;-6.57;92.10;98916.40;109086;1272;24193;-81
2023/02/09 00:34:43;;;;;;;30.60;16.10;;;;;;;-6.60;91.97;98918.63;109040;1273;22535;-82
2023/02/09 00:37:14;;;;;;;35.50;18.50;;;;;;;-6.64;91.69;98909.29;107691;1268;1859881;-82
2023/02/09 00:39:48;;;;;;;41.10;20.60;;;;;;;-6.68;91.42;98907.71;109106;1273;22559;-81
2023/02/09 00:42:22;;;;;;;32.90;16.60;;;;;;;-6.69;91.49;98902.67;109080;1273;22815;-82
2023/02/09 00:44:53;;;;;;;38.80;19.20;;;;;;;-6.64;91.55;98900.16;109036;1274;22585;-82
2023/02/09 00:47:29;;;;;;;21.60;12.40;;;;;;;-6.63;91.54;98899.79;109011;1270;66795;-82
2023/02/09 00:50:05;;;;;;;28.30;14.80;;;;;;;-6.66;91.17;98894.65;109093;1272;25241;-82
2023/02/09 00:52:36;;;;;;;31.50;17.60;;;;;;;-6.73;91.04;98892.45;109074;1272;23792;-81
2023/02/09 00:55:09;;;;;;;26.90;15.80;;;;;;;-6.80;90.87;98893.33;109079;1273;22559;-82
2023/02/09 00:57:40;;;;;;;29.50;16.40;;;;;;;-6.82;91.04;98894.68;109064;1273;58910;-81
2023/02/09 01:00:15;;;;;;;33.70;17.60;;;;;;;-6.77;91.21;98886.23;109086;1273;22621;-81
2023/02/09 01:02:46;;;;;;;24.90;13.90;;;;;;;-6.76;91.12;98885.80;109047;1273;22511;-81
2023/02/09 01:05:17;;;;;;;26.40;14.20;;;;;;;-6.80;90.97;98878.36;109109;1273;22628;-82
2023/02/09 01:07:48;;;;;;;30.10;16.10;;;;;;;-6.83;91.06;98869.31;107589;1271;2014847;-81
2023/02/09 01:10:21;;;;;;;30.90;15.80;;;;;;;-6.88;90.83;98869.12;109087;1263;23822;-81
2023/02/09 01:12:52;;;;;;;24.20;12.60;;;;;;;-6.94;90.73;98871.85;109098;1268;22519;-81
2023/02/09 01:15:23;;;;;;;21.60;12.20;;;;;;;-7.01;90.58;98865.83;109124;1268;22513;-81
2023/02/09 01:17:54;;;;;;;23.10;11.70;;;;;;;-7.05;90.79;98866.46;107541;1273;2048214;-81
2023/02/09 01:20:28;;;;;;;23.80;13.10;;;;;;;-7.06;90.86;98861.69;109066;1270;22525;-82
2023/02/09 01:22:59;;;;;;;30.70;17.50;;;;;;;-7.00;90.85;98859.20;109058;1266;23779;-82
2023/02/09 01:25:34;;;;;;;30.20;16.70;;;;;;;-6.97;90.60;98856.08;109078;1273;22544;-82
2023/02/09 01:28:05;;;;;;;28.50;15.70;;;;;;;-6.95;90.68;98856.27;109058;1273;56837;-81
2023/02/09 01:30:37;;;;;;;26.60;14.60;;;;;;;-7.00;90.36;98852.84;109058;1273;22523;-81
2023/02/09 01:33:09;;;;;;;26.70;14.50;;;;;;;-6.98;90.50;98842.23;109088;1273;22523;-82
2023/02/09 01:35:42;;;;;;;24.80;14.40;;;;;;;-6.94;90.58;98839.13;109053;1273;24342;-81
2023/02/09 01:38:14;;;;;;;24.40;14.30;;;;;;;-6.90;90.55;98836.65;109007;1269;118198;-81
2023/02/09 01:40:50;;;;;;;24.20;12.90;;;;;;;-6.90;90.24;98828.57;109071;1273;23336;-82
2023/02/09 01:43:21;;;;;;;19.80;10.60;;;;;;;-6.85;90.32;98823.54;109104;1273;22565;-81
2023/02/09 01:45:54;;;;;;;20.90;12.00;;;;;;;-6.75;90.52;98811.79;109033;1273;22915;-82
2023/02/09 01:48:30;;;;;;;20.30;11.20;;;;;;;-6.66;90.16;98813.52;109052;1273;50786;-81
2023/02/09 01:51:01;;;;;;;25.80;14.50;;;;;;;-6.69;90.04;98814.23;109121;1273;22670;-80
2023/02/09 01:53:35;;;;;;;18.60;9.80;;;;;;;-6.76;89.58;98812.36;109099;1273;22500;-81
2023/02/09 01:56:15;;;;;;;17.00;9.70;;;;;;;-6.74;89.64;98809.11;109072;1270;22638;-81
2023/02/09 01:58:48;;;;;;;16.40;8.50;;;;;;;-6.74;89.37;98806.54;109052;1270;41125;-81
2023/02/09 02:01:22;;;;;;;24.50;12.40;;;;;;;-6.79;89.29;98801.08;109088;1273;22550;-81
2023/02/09 02:03:54;;;;;;;23.40;12.90;;;;;;;-6.87;89.08;98797.56;109095;1265;22601;-82
2023/02/09 02:06:27;;;;;;;17.30;9.50;;;;;;;-6.88;89.16;98795.61;109118;1270;22521;-82
2023/02/09 02:09:02;;;;;;;13.40;7.60;;;;;;;-6.83;89.14;98791.64;109184;1272;51077;-82
2023/02/09 02:11:35;;;;;;;17.40;8.70;;;;;;;-6.79;89.31;98795.09;109168;1272;22462;-82
2023/02/09 02:14:07;;;;;;;15.00;8.60;;;;;;;-6.73;89.19;98793.81;109276;1269;23977;-81
2023/02/09 02:16:49;;;;;;;16.30;9.00;;;;;;;-6.64;89.23;98788.23;109124;1272;22585;-81
2023/02/09 02:20:05;;;;;;;18.10;10.80;;;;;;;-6.50;89.30;98792.52;109226;1272;22515;-82
2023/02/09 02:22:55;;;;;;;17.40;9.70;;;;;;;-6.38;88.62;98799.52;109219;1272;22543;-81
2023/02/09 02:26:16;;;;;;;13.60;8.20;;;;;;;-6.47;88.33;98790.40;109113;1263;24386;-82
2023/02/09 02:29:13;;;;;;;19.40;9.40;;;;;;;-6.49;88.19;98792.98;107595;1273;2004848;-82
2023/02/09 02:32:05;;;;;;;16.40;8.40;;;;;;;-6.62;87.97;98797.75;109099;1272;22505;-81
2023/02/09 02:34:45;;;;;;;18.60;8.90;;;;;;;-6.70;88.27;98808.45;109059;1273;22549;-81
2023/02/09 02:37:26;;;;;;;19.40;10.60;;;;;;;-6.67;88.25;98806.89;109092;1270;34360;-82
2023/02/09 02:40:05;;;;;;;19.90;11.50;;;;;;;-6.65;88.36;98812.56;109198;1249;22525;-82
2023/02/09 02:42:48;;;;;;;24.60;12.10;;;;;;;-6.64;88.42;98817.14;109303;1269;22573;-82
2023/02/09 02:45:28;;;;;;;22.80;12.50;;;;;;;-6.66;88.24;98816.40;109237;1269;22840;-81
2023/02/09 02:48:07;;;;;;;18.80;9.50;;;;;;;-6.66;88.28;98812.14;109174;1272;42886;-81
2023/02/09 02:50:45;;;;;;;19.40;10.60;;;;;;;-6.66;88.40;98808.88;109015;1252;23291;-81
2023/02/09 02:53:23;;;;;;;15.00;8.00;;;;;;;-6.64;88.20;98806.15;109103;1273;24238;-81
2023/02/09 02:55:56;;;;;;;20.30;10.60;;;;;;;-6.63;88.10;98805.02;109033;1273;24206;-81
2023/02/09 02:58:30;;;;;;;22.90;11.30;;;;;;;-6.62;87.84;98804.23;109031;1272;52551;-81
2023/02/09 03:01:04;;;;;;;13.00;7.20;;;;;;;-6.61;88.05;98803.02;109093;1273;22511;-81
2023/02/09 03:03:37;;;;;;;24.00;11.30;;;;;;;-6.62;87.96;98799.95;109105;1267;22514;-82
2023/02/09 03:06:12;;;;;;;17.00;8.80;;;;;;;-6.62;87.76;98800.95;109093;1266;22552;-82
2023/02/09 03:08:56;;;;;;;17.00;8.00;;;;;;;-6.60;87.80;98799.13;109152;1272;53478;-81
2023/02/09 03:11:35;;;;;;;15.30;8.60;;;;;;;-6.59;87.65;98797.39;109327;1267;22535;-82
2023/02/09 03:14:20;;;;;;;18.30;9.00;;;;;;;-6.54;87.83;98793.51;109212;1265;23081;-82
2023/02/09 03:17:07;;;;;;;20.70;10.00;;;;;;;-6.51;87.72;98797.96;109084;1272;45443;-82
2023/02/09 03:19:46;;;;;;;15.20;7.50;;;;;;;-6.55;87.46;98796.35;109030;1270;22587;-82
2023/02/09 03:22:31;;;;;;;13.20;5.70;;;;;;;-6.49;87.39;98791.39;109077;1251;22540;-82
2023/02/09 03:25:08;;;;;;;18.90;10.50;;;;;;;-6.48;87.36;98787.91;109027;1267;22650;-81
2023/02/09 03:27:43;;;;;;;19.30;7.80;;;;;;;-6.43;87.00;98784.06;109057;1270;79632;-82
2023/02/09 03:30:17;;;;;;;18.80;9.90;;;;;;;-6.45;86.70;98791.14;109078;1267;22644;-82
2023/02/09 03:32:55;;;;;;;16.50;8.20;;;;;;;-6.54;86.77;98794.54;109035;1270;22551;-82
2023/02/09 03:35:36;;;;;;;22.20;11.40;;;;;;;-6.59;86.65;98796.16;109039;1267;22524;-82
2023/02/09 03:38:07;;;;;;;18.10;10.10;;;;;;;-6.66;86.61;98792.73;109014;1267;38689;-81
2023/02/09 03:40:41;;;;;;;17.90;10.00;;;;;;;-6.72;86.73;98786.50;109070;1265;22533;-82
2023/02/09 03:43:19;;;;;;;21.80;11.10;;;;;;;-6.76;86.65;98786.92;109036;1267;22591;-82
2023/02/09 03:45:53;;;;;;;18.00;9.70;;;;;;;-6.78;86.90;98787.73;109006;1270;22536;-82
2023/02/09 03:48:24;;;;;;;15.40;8.60;;;;;;;-6.77;86.93;98784.13;109038;1272;42197;-81
2023/02/09 03:50:55;;;;;;;22.40;10.00;;;;;;;-6.77;86.67;98791.11;109000;1273;24183;-81
2023/02/09 03:53:32;;;;;;;23.30;11.20;;;;;;;-6.79;86.84;98789.40;109022;1267;25310;-81
2023/02/09 03:56:08;;;;;;;20.50;11.60;;;;;;;-6.83;86.66;98785.94;109050;1270;22542;-82
2023/02/09 03:58:40;;;;;;;24.00;12.80;;;;;;;-6.81;86.70;98786.33;108982;1270;81290;-82
2023/02/09 04:01:14;;;;;;;20.40;10.90;;;;;;;-6.83;86.52;98785.09;109097;1266;22559;-80
2023/02/09 04:03:48;;;;;;;20.40;11.80;;;;;;;-6.87;86.52;98785.70;109027;1267;22700;-81
2023/02/09 04:06:21;;;;;;;17.70;10.00;;;;;;;-6.90;86.48;98780.93;109047;1266;22504;-81
2023/02/09 04:08:52;;;;;;;23.10;12.10;;;;;;;-6.91;86.61;98779.08;108958;1270;97829;-81
2023/02/09 04:11:23;;;;;;;20.40;10.80;;;;;;;-6.93;86.42;98773.77;109058;1269;22539;-82
2023/02/09 04:13:56;;;;;;;18.60;10.10;;;;;;;-6.94;86.61;98770.44;109024;1273;22472;-82
2023/02/09 04:16:34;;;;;;;19.50;11.20;;;;;;;-6.93;86.42;98774.64;109071;1270;22554;-82
2023/02/09 04:19:07;;;;;;;21.10;11.20;;;;;;;-6.91;86.59;98773.93;109020;1267;48031;-82
2023/02/09 04:21:41;;;;;;;18.80;11.20;;;;;;;-6.92;86.30;98771.45;109043;1267;22549;-82
2023/02/09 04:24:13;;;;;;;20.90;11.40;;;;;;;-6.92;86.41;98770.23;109093;1266;25279;-80
2023/02/09 04:26:46;;;;;;;22.70;11.90;;;;;;;-6.93;86.30;98767.72;109025;1267;22516;-80
2023/02/09 04:29:22;;;;;;;20.20;11.30;;;;;;;-6.99;86.09;98766.13;109047;1269;23738;-82
2023/02/09 04:31:54;;;;;;;18.10;9.40;;;;;;;-7.05;86.00;98761.60;109025;1270;22485;-82
2023/02/09 04:34:29;;;;;;;14.10;6.90;;;;;;;-7.03;86.11;98757.52;109102;1265;22574;-82
2023/02/09 04:37:01;;;;;;;18.00;10.10;;;;;;;-7.02;86.07;98753.55;109027;1266;56979;-82
2023/02/09 04:39:35;;;;;;;22.70;11.90;;;;;;;-7.01;86.27;98755.11;109021;1267;23731;-82
2023/02/09 04:42:13;;;;;;;23.40;12.00;;;;;;;-7.01;86.24;98751.23;109017;1267;22589;-83
2023/02/09 04:44:47;;;;;;;24.00;12.50;;;;;;;-7.06;85.83;98751.34;108996;1273;22563;-82
2023/02/09 04:47:18;;;;;;;22.40;11.50;;;;;;;-7.09;85.93;98751.30;109002;1267;54459;-83
2023/02/09 04:49:49;;;;;;;19.90;11.50;;;;;;;-7.14;85.92;98754.92;109042;1269;22464;-83
2023/02/09 04:52:24;;;;;;;19.50;11.80;;;;;;;-7.20;85.89;98756.87;109068;1267;25413;-83
2023/02/09 04:54:55;;;;;;;16.80;9.20;;;;;;;-7.25;85.76;98759.33;109139;1270;23005;-83
2023/02/09 05:00:22;;;;;;;19.70;11.30;;;;;;;-7.27;85.91;98756.77;109013;1266;22563;-83
2023/02/09 05:02:54;;;;;;;18.20;10.40;;;;;;;-7.29;85.91;98756.06;109021;1267;25372;-82
2023/02/09 05:05:26;;;;;;;19.10;11.00;;;;;;;-7.31;86.16;98755.97;109043;1267;22521;-83
2023/02/09 05:08:00;;;;;;;21.00;11.60;;;;;;;-7.34;86.01;98756.71;109067;1267;29423;-83
2023/02/09 05:10:31;;;;;;;22.20;12.10;;;;;;;-7.36;86.12;98759.94;109042;1270;24295;-82
2023/02/09 05:13:07;;;;;;;20.50;11.30;;;;;;;-7.35;86.13;98756.42;109020;1273;22559;-83
2023/02/09 05:15:42;;;;;;;16.30;9.20;;;;;;;-7.36;86.17;98754.32;109040;1270;24221;-83
2023/02/09 05:18:17;;;;;;;17.50;10.00;;;;;;;-7.37;85.99;98747.85;109004;1267;55473;-83
2023/02/09 05:20:50;;;;;;;16.30;10.50;;;;;;;-7.37;86.04;98744.92;109040;1270;22553;-83
2023/02/09 05:23:27;;;;;;;17.70;10.30;;;;;;;-7.37;86.17;98743.55;109073;1270;23706;-82
2023/02/09 05:26:02;;;;;;;19.00;9.60;;;;;;;-7.40;85.73;98743.10;109042;1267;22541;-82
2023/02/09 05:28:35;;;;;;;14.20;7.90;;;;;;;-7.40;86.21;98744.44;109016;1269;44117;-83
2023/02/09 05:31:07;;;;;;;16.50;8.90;;;;;;;-7.35;86.34;98748.55;109049;1267;22519;-83
2023/02/09 05:33:39;;;;;;;17.90;10.50;;;;;;;-7.35;86.25;98748.02;109066;1267;22520;-83
2023/02/09 05:36:12;;;;;;;17.30;10.00;;;;;;;-7.35;86.39;98750.77;109097;1270;22566;-83
2023/02/09 05:38:46;;;;;;;17.00;9.50;;;;;;;-7.39;86.02;98751.58;109028;1269;32039;-83
2023/02/09 05:44:08;;;;;;;15.80;8.80;;;;;;;-7.47;86.02;98750.42;109050;1265;22529;-82
2023/02/09 05:46:40;;;;;;;19.90;10.90;;;;;;;-7.47;86.04;98747.54;109041;1266;22529;-80
2023/02/09 05:49:13;;;;;;;16.90;9.30;;;;;;;-7.52;85.90;98753.55;108994;1266;43655;-83
2023/02/09 05:51:48;;;;;;;15.20;8.20;;;;;;;-7.52;86.12;98751.67;109036;1269;22571;-83
2023/02/09 05:54:23;;;;;;;17.70;9.70;;;;;;;-7.49;86.29;98750.80;109051;1266;24372;-83
2023/02/09 05:57:06;;;;;;;16.70;9.90;;;;;;;-7.49;86.15;98755.06;109023;1265;39616;-83
2023/02/09 05:59:40;;;;;;;18.80;10.30;;;;;;;-7.49;86.37;98754.70;109086;1266;23273;-83
2023/02/09 06:02:14;;;;;;;16.50;9.60;;;;;;;-7.48;86.08;98749.70;109111;1265;23767;-83
2023/02/09 06:04:47;;;;;;;16.30;8.70;;;;;;;-7.50;86.15;98747.95;109041;1266;25432;-83
2023/02/09 06:07:21;;;;;;;19.50;9.40;;;;;;;-7.54;85.99;98742.89;109025;1267;49114;-83
2023/02/09 06:09:52;;;;;;;19.10;9.90;;;;;;;-7.54;86.08;98736.02;109158;1267;22661;-84
2023/02/09 06:12:24;;;;;;;17.00;9.60;;;;;;;-7.56;85.94;98734.48;109164;1267;23024;-82
2023/02/09 06:14:55;;;;;;;18.00;9.10;;;;;;;-7.56;85.98;98735.55;109061;1273;25502;-81
2023/02/09 06:17:28;;;;;;;15.20;9.80;;;;;;;-7.52;86.23;98735.38;109066;1267;43679;-82
2023/02/09 06:19:59;;;;;;;18.80;10.20;;;;;;;-7.34;86.68;98733.20;109183;1265;22543;-82
2023/02/09 06:22:31;;;;;;;19.10;9.80;;;;;;;-6.87;87.12;98729.17;109113;1265;22565;-82
2023/02/09 06:25:02;;;;;;;18.30;10.10;;;;;;;-6.29;87.15;98726.19;109018;1270;25266;-81
2023/02/09 06:27:33;;;;;;;18.40;10.90;;;;;;;-5.73;86.89;98724.30;109078;1265;36156;-82
2023/02/09 06:30:05;;;;;;;18.10;10.00;;;;;;;-5.11;86.55;98725.25;109240;1272;24237;-84
2023/02/09 06:32:36;;;;;;;13.30;8.70;;;;;;;-4.49;85.97;98722.95;109252;1272;23896;-85
2023/02/09 06:35:08;;;;;;;17.00;10.60;;;;;;;-3.92;84.59;98728.19;109226;1272;22522;-85
2023/02/09 06:37:39;;;;;;;15.40;9.50;;;;;;;-3.43;84.08;98726.76;109131;1265;46397;-83
2023/02/09 06:40:12;;;;;;;14.60;9.90;;;;;;;-2.92;82.97;98724.48;109051;1270;22524;-85
2023/02/09 06:42:45;;;;;;;13.90;9.70;;;;;;;-2.74;80.89;98728.57;109045;1272;22563;-84
2023/02/09 06:45:17;;;;;;;14.00;9.90;;;;;;;-2.50;80.46;98723.89;109030;1270;22551;-84
2023/02/09 06:47:48;;;;;;;13.50;9.00;;;;;;;-2.05;80.49;98719.95;109054;1266;32807;-85
2023/02/09 06:50:20;;;;;;;15.50;10.60;;;;;;;-1.45;79.81;98716.45;109113;1273;22567;-83
2023/02/09 06:52:52;;;;;;;16.20;10.50;;;;;;;-1.33;78.10;98714.03;109077;1265;25310;-83
2023/02/09 06:55:25;;;;;;;15.80;11.20;;;;;;;-1.16;77.05;98716.85;109135;1265;23245;-84
2023/02/09 06:57:57;;;;;;;14.70;10.50;;;;;;;-1.23;75.65;98721.17;109108;1264;44574;-83
2023/02/09 07:00:30;;;;;;;14.00;10.30;;;;;;;-0.91;76.59;98732.55;109226;1269;22662;-86
2023/02/09 07:03:02;;;;;;;13.70;9.70;;;;;;;-0.21;76.37;98734.14;109351;1265;22547;-85
2023/02/09 07:05:33;;;;;;;14.90;10.40;;;;;;;0.27;75.81;98730.36;109361;1265;25470;-89
2023/02/09 07:08:05;;;;;;;14.60;11.20;;;;;;;0.86;75.16;98727.57;109211;1264;36799;-86
2023/02/09 07:10:40;;;;;;;13.50;9.70;;;;;;;0.95;72.79;98722.27;109286;1271;22630;-83
2023/02/09 07:13:11;;;;;;;15.50;10.90;;;;;;;1.10;71.78;98725.55;109251;1272;22988;-84
2023/02/09 07:15:44;;;;;;;13.30;10.80;;;;;;;1.34;71.79;98724.45;109299;1271;22550;-85
2023/02/09 07:18:18;;;;;;;15.60;11.50;;;;;;;2.01;71.04;98722.20;109115;1266;66619;-86
2023/02/09 07:20:55;;;;;;;15.20;11.90;;;;;;;2.03;68.56;98719.98;109117;1265;22536;-88
2023/02/09 07:23:26;;;;;;;16.00;10.90;;;;;;;2.07;68.48;98725.12;109181;1272;24117;-88
2023/02/09 07:26:01;;;;;;;15.50;11.30;;;;;;;2.41;68.80;98724.90;109162;1251;25412;-88
2023/02/09 07:28:32;;;;;;;15.10;11.50;;;;;;;3.33;69.85;98719.92;109083;1265;26451;-87
2023/02/09 07:31:08;;;;;;;15.00;11.60;;;;;;;4.29;69.61;98714.90;109235;1270;23161;-89
2023/02/09 07:33:39;;;;;;;14.60;11.60;;;;;;;4.91;68.16;98709.94;109196;1272;22516;-89
2023/02/09 07:36:13;;;;;;;13.50;10.30;;;;;;;5.30;66.20;98709.58;109127;1267;25259;-90
2023/02/09 07:38:47;;;;;;;14.10;10.80;;;;;;;5.42;64.63;98708.76;109074;1272;22640;-89
2023/02/09 07:41:23;;;;;;;13.00;10.40;;;;;;;5.43;64.29;98708.12;109132;1272;22519;-89
2023/02/09 07:43:55;;;;;;;13.10;9.80;;;;;;;6.11;64.21;98704.11;109126;1267;22566;-89
2023/02/09 07:46:26;;;;;;;13.20;10.60;;;;;;;6.43;62.19;98700.23;109287;1265;22993;-89
2023/02/09 07:48:58;;;;;;;13.40;10.20;;;;;;;6.00;59.19;98702.73;109274;1266;22486;-89
2023/02/09 07:51:29;;;;;;;13.30;10.00;;;;;;;5.32;58.98;98702.27;109078;1265;22498;-87
2023/02/09 07:54:01;;;;;;;12.10;9.40;;;;;;;5.32;58.63;98699.03;109176;1272;22537;-88
2023/02/09 07:56:32;;;;;;;14.10;10.60;;;;;;;5.11;57.51;98704.77;109099;1265;22640;-88
2023/02/09 07:59:03;;;;;;;12.60;10.20;;;;;;;4.84;57.09;98707.50;109063;1272;22594;-87
2023/02/09 08:01:35;;;;;;;12.50;10.80;;;;;;;4.93;56.22;98708.59;109104;1273;22653;-87
2023/02/09 08:04:07;;;;;;;14.50;10.70;;;;;;;4.55;56.33;98712.63;109289;1272;22555;-86
2023/02/09 08:06:42;;;;;;;12.50;9.90;;;;;;;4.75;55.22;98710.17;109176;1267;22590;-86
2023/02/09 08:09:15;;;;;;;15.50;12.00;;;;;;;4.22;53.84;98711.71;109076;1267;22536;-87
2023/02/09 08:11:55;;;;;;;12.70;9.60;;;;;;;4.24;55.41;98710.36;109169;1266;22513;-86
2023/02/09 08:14:30;;;;;;;15.10;11.70;;;;;;;4.16;53.44;98713.73;109101;1267;23000;-86
2023/02/09 08:17:23;;;;;;;14.80;11.20;;;;;;;4.41;55.27;98710.21;109167;1263;22573;-87
2023/02/09 08:20:00;;;;;;;14.60;10.30;;;;;;;4.93;53.58;98707.61;109135;1265;22552;-86
2023/02/09 08:22:37;;;;;;;14.00;9.20;;;;;;;4.31;51.43;98709.63;109205;1265;25426;-87
2023/02/09 08:25:10;;;;;;;13.90;9.80;;;;;;;3.36;50.30;98707.02;109130;1266;22566;-86
2023/02/09 08:27:48;;;;;;;13.70;10.50;;;;;;;3.03;51.61;98706.17;109094;1273;24696;-86
2023/02/09 08:30:23;;;;;;;13.70;10.40;;;;;;;2.81;51.63;98703.37;109049;1273;22623;-86
2023/02/09 08:32:55;;;;;;;14.40;9.70;;;;;;;3.05;52.58;98704.27;109174;1272;24241;-86
2023/02/09 08:35:27;;;;;;;14.30;9.40;;;;;;;3.24;53.51;98704.95;109151;1267;25425;-86
2023/02/09 08:38:02;;;;;;;14.40;10.10;;;;;;;3.53;51.25;98700.88;109098;1268;57233;-87
2023/02/09 08:40:39;;;;;;;13.40;9.00;;;;;;;3.05;52.18;98700.03;109196;1250;22567;-87
2023/02/09 08:43:10;;;;;;;12.80;8.20;;;;;;;3.04;51.11;98699.04;109163;1273;22523;-87
2023/02/09 08:45:43;;;;;;;13.40;8.30;;;;;;;2.42;51.27;98694.96;109120;1265;22671;-85
2023/02/09 08:48:15;;;;;;;11.50;7.10;;;;;;;2.33;51.02;98686.48;109102;1250;57263;-84
2023/02/09 08:50:50;;;;;;;13.50;8.60;;;;;;;1.55;51.27;98693.35;109170;1272;22685;-85
2023/02/09 08:53:21;;;;;;;10.00;5.80;;;;;;;1.85;53.79;98691.98;109118;1267;22530;-88
2023/02/09 08:55:53;;;;;;;13.10;8.70;;;;;;;1.46;51.32;98691.38;109163;1265;22710;-85
2023/02/09 08:58:26;;;;;;;17.60;9.90;;;;;;;0.38;51.85;98694.39;109075;1269;29467;-78
2023/02/09 09:01:01;;;;;;;13.30;7.90;;;;;;;-0.24;53.10;98697.61;109122;1265;24185;-79
2023/02/09 09:03:32;;;;;;;13.10;6.90;;;;;;;-0.62;54.43;98703.44;109111;1267;22527;-79
2023/02/09 09:06:07;;;;;;;18.60;9.30;;;;;;;-0.89;54.40;98702.13;109133;1272;22550;-79
2023/02/09 09:08:42;;;;;;;15.40;8.10;;;;;;;-1.16;55.72;98698.66;109018;1268;22548;-79
2023/02/09 09:11:13;;;;;;;13.40;8.50;;;;;;;-1.15;56.64;98700.11;109147;1270;22536;-78
2023/02/09 09:13:45;;;;;;;15.90;7.90;;;;;;;-1.23;56.80;98698.76;109057;1267;22586;-78
2023/02/09 09:16:19;;;;;;;17.30;9.80;;;;;;;-1.44;56.92;98704.00;109129;1273;22527;-78
2023/02/09 09:18:51;;;;;;;15.40;9.00;;;;;;;-1.42;57.79;98704.88;109068;1273;50637;-78
2023/02/09 09:21:24;;;;;;;14.80;7.60;;;;;;;-1.39;58.08;98703.48;109109;1273;23217;-78
2023/02/09 09:23:58;;;;;;;13.80;8.50;;;;;;;-1.44;58.59;98701.21;109115;1272;22580;-78
2023/02/09 09:26:33;;;;;;;14.50;8.70;;;;;;;-1.49;58.54;98705.86;109118;1265;23556;-78
2023/02/09 09:29:05;;;;;;;12.90;8.20;;;;;;;-1.51;59.48;98708.39;109112;1265;22928;-78
2023/02/09 09:31:38;;;;;;;13.30;7.90;;;;;;;-1.42;59.40;98706.40;109073;1266;22540;-78
2023/02/09 09:34:09;;;;;;;15.10;9.60;;;;;;;-1.40;59.28;98708.80;109100;1273;22529;-78
2023/02/09 09:36:42;;;;;;;11.80;8.00;;;;;;;-1.34;59.82;98706.67;109098;1272;22592;-78
2023/02/09 09:39:14;;;;;;;15.00;8.70;;;;;;;-1.20;59.97;98701.47;109113;1272;25422;-78
2023/02/09 09:41:50;;;;;;;14.60;8.50;;;;;;;-0.99;60.79;98708.51;109107;1272;23649;-78
2023/02/09 09:44:28;;;;;;;14.90;9.20;;;;;;;-0.59;61.35;98707.60;109053;1273;22546;-78
2023/02/09 09:47:07;;;;;;;13.70;8.60;;;;;;;-0.11;61.73;98705.50;109037;1267;67499;-78
2023/02/09 09:49:39;;;;;;;13.40;8.30;;;;;;;0.32;61.45;98703.17;109084;1270;22824;-78
2023/02/09 09:52:28;;;;;;;12.00;7.60;;;;;;;0.60;61.39;98704.73;109146;1266;25358;-77
2023/02/09 09:55:06;;;;;;;13.80;7.90;;;;;;;1.01;61.71;98707.31;109083;1266;22524;-78
2023/02/09 09:57:43;;;;;;;11.40;7.40;;;;;;;1.18;60.60;98704.34;109136;1272;22550;-78
2023/02/09 10:00:20;;;;;;;11.40;7.60;;;;;;;1.36;60.92;98697.64;109110;1265;22632;-78
2023/02/09 10:02:53;;;;;;;11.40;7.90;;;;;;;1.57;60.93;98695.27;109070;1265;22492;-78
2023/02/09 10:05:29;;;;;;;11.60;7.10;;;;;;;1.83;60.92;98690.61;109076;1273;22550;-78
2023/02/09 10:08:08;;;;;;;11.50;6.70;;;;;;;2.07;60.69;98683.88;109047;1265;22873;-78
2023/02/09 10:10:45;;;;;;;12.20;6.70;;;;;;;2.20;59.90;98682.98;109088;1272;25465;-78
2023/02/09 10:13:23;;;;;;;10.70;6.70;;;;;;;2.03;58.77;98682.96;109059;1273;22535;-78
2023/02/09 10:15:56;;;;;;;12.60;7.00;;;;;;;2.04;59.06;98680.23;109013;1268;22571;-78
2023/02/09 10:18:28;;;;;;;8.80;5.60;;;;;;;2.16;58.95;98684.77;109041;1272;22592;-78
2023/02/09 10:21:08;;;;;;;10.30;5.20;;;;;;;2.19;57.39;98678.51;109066;1273;22565;-78
2023/02/09 10:23:42;;;;;;;10.20;6.20;;;;;;;1.73;56.77;98683.16;109016;1264;22624;-78
2023/02/09 10:26:23;;;;;;;8.50;5.20;;;;;;;1.91;58.32;98676.68;109093;1270;22574;-81
2023/02/09 10:28:56;;;;;;;8.10;5.50;;;;;;;2.25;57.96;98673.50;109119;1265;22517;-78
2023/02/09 10:31:31;;;;;;;8.90;5.30;;;;;;;2.19;56.56;98666.70;109070;1272;22985;-78
2023/02/09 10:34:10;;;;;;;10.20;5.00;;;;;;;2.06;56.65;98663.91;109087;1266;25078;-79
2023/02/09 10:36:50;;;;;;;8.60;5.60;;;;;;;2.24;56.09;98660.02;109085;1273;23278;-79
2023/02/09 10:39:20;;;;;;;;;;;;;;;2.14;55.17;98659.21;109188;1273;22533;-79
2023/02/09 10:41:53;;;;;;;8.60;5.20;;;;;;;2.08;55.17;98654.18;109025;1273;22899;-79
2023/02/09 10:44:27;;;;;;;7.30;4.40;;;;;;;1.89;54.89;98649.82;109160;1273;22634;-80
2023/02/09 10:47:22;;;;;;;6.30;4.10;;;;;;;1.68;53.87;98645.92;109150;1272;47769;-80
2023/02/09 10:49:56;;;;;;;6.90;3.50;;;;;;;1.59;53.81;98648.29;109086;1272;22529;-80
2023/02/09 10:52:34;;;;;;;5.50;3.40;;;;;;;1.65;53.25;98640.15;109093;1272;22479;-80
2023/02/09 10:55:15;;;;;;;7.40;4.70;;;;;;;1.68;52.03;98640.68;109065;1273;23771;-79
2023/02/09 10:57:48;;;;;;;7.60;4.50;;;;;;;1.73;53.22;98636.25;109131;1272;24010;-80
2023/02/09 11:00:34;;;;;;;5.80;3.60;;;;;;;1.94;53.81;98635.34;109296;1272;22532;-80
2023/02/09 11:03:17;;;;;;;6.60;3.80;;;;;;;1.98;52.93;98630.48;109250;1266;22590;-80
2023/02/09 11:05:57;;;;;;;8.60;4.30;;;;;;;1.76;52.77;98624.75;109154;1272;22553;-79
2023/02/09 11:08:38;;;;;;;6.30;3.70;;;;;;;1.58;52.92;98617.27;109110;1273;22516;-80
2023/02/09 11:11:19;;;;;;;6.30;3.90;;;;;;;1.33;52.93;98617.75;109168;1265;22486;-80
2023/02/09 11:13:50;;;;;;;5.70;3.40;;;;;;;1.30;52.84;98613.42;109078;1273;22524;-80
2023/02/09 11:16:39;;;;;;;8.80;4.30;;;;;;;1.35;52.88;98614.28;109127;1250;22517;-79
2023/02/09 11:19:22;;;;;;;6.00;3.90;;;;;;;1.43;52.95;98606.38;109080;1273;25427;-79
2023/02/09 11:22:08;;;;;;;4.90;3.40;;;;;;;1.72;54.26;98602.60;109082;1273;22629;-79
2023/02/09 11:24:52;;;;;;;7.90;5.20;;;;;;;1.94;53.13;98601.48;109115;1265;22646;-79
2023/02/09 11:27:43;;;;;;;9.70;5.20;;;;;;;1.90;53.84;98599.38;109059;1265;22578;-79
2023/02/09 11:30:23;;;;;;;9.50;5.10;;;;;;;1.97;53.95;98592.95;109102;1270;24998;-78
2023/02/09 11:33:03;;;;;;;7.70;4.90;;;;;;;2.03;54.17;98590.48;109141;1273;22514;-79
2023/02/09 11:35:47;;;;;;;8.80;5.30;;;;;;;2.25;54.73;98583.45;109125;1273;25294;-79
2023/02/09 11:38:24;;;;;;;9.50;6.30;;;;;;;2.40;54.59;98584.94;109100;1266;24251;-79
2023/02/09 11:40:58;;;;;;;9.50;5.80;;;;;;;2.41;53.41;98579.48;109080;1273;22563;-79
2023/02/09 11:43:38;;;;;;;8.60;5.30;;;;;;;2.18;53.44;98573.66;109103;1273;22575;-79
2023/02/09 11:46:14;;;;;;;9.20;5.30;;;;;;;2.06;53.26;98565.09;109120;1273;25332;-79
2023/02/09 11:48:48;;;;;;;8.80;5.40;;;;;;;2.06;53.74;98561.95;109200;1265;22623;-79
2023/02/09 11:51:22;;;;;;;9.10;4.80;;;;;;;2.11;52.62;98561.16;109359;1273;24409;-80
2023/02/09 11:53:59;;;;;;;8.50;5.20;;;;;;;2.03;53.13;98552.52;109106;1273;23878;-79
2023/02/09 11:56:30;;;;;;;12.80;6.80;;;;;;;2.07;53.18;98552.27;109176;1265;25336;-80
2023/02/09 11:59:08;;;;;;;11.20;6.80;;;;;;;1.93;52.44;98551.55;109180;1272;25785;-80
2023/02/09 12:01:45;;;;;;;12.60;6.50;;;;;;;1.88;53.85;98542.22;109215;1259;23307;-80